createdAt,value
2019-03-28T00:02:08.949Z,53.24
2019-03-28T00:04:35.761Z,53.50
2019-03-28T00:07:02.556Z,53.70
2019-03-28T00:09:29.430Z,53.96
2019-03-28T00:11:56.231Z,54.42
2019-03-28T00:14:23.004Z,54.72
2019-03-28T00:16:50.168Z,54.87
2019-03-28T00:19:17.091Z,55.35
2019-03-28T00:21:43.962Z,55.59
2019-03-28T00:24:12.972Z,55.79
2019-03-28T00:26:40.214Z,55.71
2019-03-28T00:29:06.977Z,55.84
2019-03-28T00:31:33.947Z,55.98
2019-03-28T00:34:02.674Z,56.02
2019-03-28T00:36:29.490Z,56.10
2019-03-28T00:38:56.461Z,56.45
2019-03-28T00:41:23.552Z,56.64
2019-03-28T00:43:51.329Z,56.80
2019-03-28T00:46:18.149Z,57.15
2019-03-28T00:48:44.925Z,57.42
2019-03-28T00:51:11.912Z,57.55
2019-03-28T00:53:39.319Z,57.77
2019-03-28T00:56:06.377Z,57.97
2019-03-28T00:58:33.252Z,58.23
2019-03-28T01:01:00.064Z,58.40
2019-03-28T01:03:26.826Z,58.72
2019-03-28T01:05:53.589Z,58.90
2019-03-28T01:08:20.417Z,59.30
2019-03-28T01:10:47.396Z,59.39
2019-03-28T01:13:14.902Z,59.92
2019-03-28T01:15:41.718Z,60.04
2019-03-28T01:18:08.569Z,60.12
2019-03-28T01:20:35.943Z,60.10
2019-03-28T01:23:03.027Z,60.25
2019-03-28T01:25:29.793Z,60.16
2019-03-28T01:27:56.581Z,60.02
2019-03-28T01:30:23.507Z,60.30
2019-03-28T01:32:51.001Z,60.37
2019-03-28T01:35:17.826Z,60.53
2019-03-28T01:37:44.587Z,60.67
2019-03-28T01:40:11.509Z,60.90
2019-03-28T01:42:38.294Z,60.99
2019-03-28T01:45:05.387Z,61.06
2019-03-28T01:47:32.272Z,61.20
2019-03-28T01:49:59.045Z,61.36
2019-03-28T01:52:25.864Z,61.45
2019-03-28T01:54:52.797Z,61.68
2019-03-28T01:57:19.803Z,61.83
2019-03-28T01:59:46.659Z,62.11
2019-03-28T02:02:13.483Z,62.39
2019-03-28T02:04:40.236Z,62.65
2019-03-28T02:07:07.325Z,62.91
2019-03-28T02:09:34.146Z,63.21
2019-03-28T02:12:00.949Z,63.51
2019-03-28T02:14:27.725Z,63.49
2019-03-28T02:16:54.729Z,63.33
2019-03-28T02:19:21.473Z,63.48
2019-03-28T02:21:48.541Z,63.72
2019-03-28T02:24:16.371Z,63.89
2019-03-28T02:26:43.086Z,64.11
2019-03-28T02:29:09.873Z,64.34
2019-03-28T02:31:36.717Z,64.30
2019-03-28T02:34:03.536Z,64.34
2019-03-28T02:36:30.283Z,64.22
2019-03-28T02:38:57.113Z,64.60
2019-03-28T02:41:24.053Z,64.76
2019-03-28T02:43:50.784Z,64.70
2019-03-28T02:46:17.499Z,64.63
2019-03-28T02:48:44.325Z,64.71
2019-03-28T02:51:11.267Z,64.61
2019-03-28T02:53:39.556Z,64.70
2019-03-28T02:56:06.483Z,64.78
2019-03-28T02:58:33.368Z,64.96
2019-03-28T03:01:00.176Z,64.99
2019-03-28T03:03:26.983Z,65.13
2019-03-28T03:05:53.789Z,65.21
2019-03-28T03:08:20.526Z,65.37
2019-03-28T03:10:47.361Z,65.45
2019-03-28T03:13:14.160Z,65.61
2019-03-28T03:15:40.886Z,65.67
2019-03-28T03:18:08.487Z,65.69
2019-03-28T03:20:35.560Z,65.84
2019-03-28T03:23:02.400Z,65.92
2019-03-28T03:25:29.364Z,65.93
2019-03-28T03:27:58.391Z,66.04
2019-03-28T03:30:25.742Z,66.05
2019-03-28T03:32:52.583Z,66.05
2019-03-28T03:35:19.567Z,66.18
2019-03-28T03:37:46.293Z,66.16
2019-03-28T03:40:13.042Z,66.53
2019-03-28T03:42:39.899Z,66.72
2019-03-28T03:45:07.160Z,66.98
2019-03-28T03:47:33.848Z,67.09
2019-03-28T03:50:00.620Z,67.12
2019-03-28T03:52:27.440Z,67.15
2019-03-28T03:54:54.911Z,67.12
2019-03-28T03:57:21.682Z,67.52
2019-03-28T03:59:48.402Z,68.87
2019-03-28T04:02:15.453Z,69.66
2019-03-28T04:04:42.396Z,70.46
2019-03-28T04:07:09.302Z,70.68
2019-03-28T04:09:36.214Z,71.19
2019-03-28T04:12:03.154Z,71.71
2019-03-28T04:14:30.002Z,72.32
2019-03-28T04:16:57.412Z,72.49
2019-03-28T04:19:24.276Z,73.06
2019-03-28T04:21:51.024Z,73.53
2019-03-28T04:24:17.963Z,73.82
2019-03-28T04:26:44.922Z,74.05
2019-03-28T04:29:12.232Z,74.48
2019-03-28T04:31:39.276Z,75.05
2019-03-28T04:34:07.795Z,75.66
2019-03-28T04:36:34.892Z,76.16
2019-03-28T04:39:01.729Z,76.25
2019-03-28T04:41:28.545Z,76.66
2019-03-28T04:43:56.057Z,77.04
2019-03-28T04:46:23.075Z,78.16
2019-03-28T04:48:50.814Z,78.61
2019-03-28T04:51:17.840Z,79.18
2019-03-28T04:53:44.612Z,79.68
2019-03-28T04:56:12.661Z,79.76
2019-03-28T04:58:44.736Z,80.17
2019-03-28T05:01:09.562Z,80.25
2019-03-28T05:03:36.753Z,80.33
2019-03-28T05:06:03.588Z,80.26
2019-03-28T05:08:30.478Z,80.08
2019-03-28T05:10:58.738Z,80.27
2019-03-28T05:13:25.863Z,80.67
2019-03-28T05:15:54.643Z,80.69
2019-03-28T05:18:21.843Z,81.36
2019-03-28T05:20:48.871Z,81.71
2019-03-28T05:23:15.683Z,81.56
2019-03-28T05:25:42.485Z,81.80
2019-03-28T05:28:09.662Z,81.51
2019-03-28T05:30:36.957Z,81.65
2019-03-28T05:33:05.817Z,81.63
2019-03-28T05:35:34.560Z,81.64
2019-03-28T05:38:02.808Z,81.87
2019-03-28T05:40:29.623Z,81.73
2019-03-28T05:42:56.410Z,81.76
2019-03-28T05:45:25.025Z,81.64
2019-03-28T05:47:51.961Z,81.36
2019-03-28T05:50:18.977Z,81.47
2019-03-28T05:52:45.815Z,81.32
2019-03-28T05:55:12.678Z,81.51
2019-03-28T05:57:39.531Z,81.33
2019-03-28T06:00:06.583Z,81.31
2019-03-28T06:02:33.386Z,81.46
2019-03-28T06:05:00.614Z,81.31
2019-03-28T06:07:27.764Z,81.23
2019-03-28T06:09:54.587Z,81.59
2019-03-28T06:12:21.401Z,81.84
2019-03-28T06:14:48.198Z,82.22
2019-03-28T06:17:15.330Z,82.43
2019-03-28T06:19:42.069Z,82.30
2019-03-28T06:22:10.466Z,82.20
2019-03-28T06:24:37.630Z,82.24
2019-03-28T06:27:05.605Z,81.88
2019-03-28T06:29:33.507Z,81.86
2019-03-28T06:32:00.552Z,81.81
2019-03-28T06:34:27.976Z,81.48
2019-03-28T06:36:54.922Z,81.27
2019-03-28T06:39:23.530Z,80.93
2019-03-28T06:41:52.519Z,81.29
2019-03-28T06:44:19.620Z,80.85
2019-03-28T06:46:47.087Z,80.66
2019-03-28T06:49:14.472Z,80.38
2019-03-28T06:51:41.207Z,80.14
2019-03-28T06:54:08.294Z,80.07
2019-03-28T06:56:35.948Z,80.36
2019-03-28T06:59:06.940Z,80.40
2019-03-28T07:01:33.794Z,79.89
2019-03-28T07:04:20.075Z,79.87
2019-03-28T07:06:48.867Z,79.71
2019-03-28T07:09:37.085Z,79.66
2019-03-28T07:12:23.292Z,79.56
2019-03-28T07:15:08.341Z,79.29
2019-03-28T07:17:43.465Z,79.29
2019-03-28T07:20:10.472Z,79.76
2019-03-28T07:22:37.604Z,79.47
2019-03-28T07:25:05.524Z,79.14
2019-03-28T07:27:32.725Z,79.30
2019-03-28T07:30:01.534Z,79.34
2019-03-28T07:32:28.454Z,79.21
2019-03-28T07:34:55.423Z,79.16
2019-03-28T07:37:24.083Z,79.08
2019-03-28T07:39:51.515Z,78.96
2019-03-28T07:42:20.147Z,79.23
2019-03-28T07:45:04.770Z,78.84
2019-03-28T07:48:03.339Z,78.62
2019-03-28T07:50:33.284Z,78.29
2019-03-28T07:52:59.283Z,78.35
2019-03-28T07:55:26.585Z,78.02
2019-03-28T07:57:53.534Z,77.65
2019-03-28T08:00:20.896Z,77.28
2019-03-28T08:02:48.072Z,76.69
2019-03-28T08:05:16.761Z,76.56
2019-03-28T08:07:45.590Z,76.52
2019-03-28T08:10:15.044Z,76.04
2019-03-28T08:12:43.737Z,76.07
2019-03-28T08:15:18.476Z,76.53
2019-03-28T08:18:03.288Z,76.39
2019-03-28T08:20:48.434Z,76.36
2019-03-28T08:23:46.930Z,75.95
2019-03-28T08:26:31.769Z,75.98
2019-03-28T08:29:16.790Z,75.16
2019-03-28T08:31:45.901Z,75.67
2019-03-28T08:34:12.766Z,74.78
2019-03-28T08:36:39.678Z,74.40
2019-03-28T08:39:06.652Z,74.00
2019-03-28T08:41:33.412Z,73.61
2019-03-28T08:44:00.152Z,73.73
2019-03-28T08:46:27.124Z,73.64
2019-03-28T08:48:54.000Z,73.74
2019-03-28T08:51:20.882Z,73.67
2019-03-28T08:53:48.099Z,73.68
2019-03-28T08:56:14.999Z,73.56
2019-03-28T08:58:41.770Z,73.90
2019-03-28T09:01:08.603Z,73.11
2019-03-28T09:03:35.464Z,73.13
2019-03-28T09:06:02.191Z,72.90
2019-03-28T09:08:28.955Z,72.67
2019-03-28T09:10:56.363Z,72.78
2019-03-28T09:13:23.273Z,72.58
2019-03-28T09:15:50.045Z,72.54
2019-03-28T09:18:16.937Z,71.95
2019-03-28T09:20:43.651Z,71.12
2019-03-28T09:23:10.424Z,71.21
2019-03-28T09:25:37.281Z,71.20
2019-03-28T09:28:04.018Z,71.34
2019-03-28T09:30:47.381Z,70.58
2019-03-28T09:33:03.864Z,70.58
2019-03-28T09:35:30.634Z,70.59
2019-03-28T09:37:57.414Z,70.30
2019-03-28T09:40:24.193Z,69.76
2019-03-28T09:42:50.924Z,69.71
2019-03-28T09:45:17.752Z,69.63
2019-03-28T09:47:44.479Z,70.02
2019-03-28T09:50:11.463Z,69.72
2019-03-28T09:52:38.244Z,69.88
2019-03-28T09:55:05.072Z,69.76
2019-03-28T09:57:31.941Z,69.37
2019-03-28T09:59:58.701Z,67.91
2019-03-28T10:02:25.419Z,67.45
2019-03-28T10:04:52.263Z,66.69
2019-03-28T10:07:18.933Z,67.00
2019-03-28T10:09:46.272Z,66.83
2019-03-28T10:12:13.120Z,65.52
2019-03-28T10:14:39.913Z,65.40
2019-03-28T10:17:06.679Z,65.33
2019-03-28T10:19:33.562Z,64.62
2019-03-28T10:22:00.365Z,64.36
2019-03-28T10:24:27.197Z,64.57
2019-03-28T10:26:55.187Z,64.62
2019-03-28T10:29:21.937Z,65.05
2019-03-28T10:31:48.719Z,64.31
2019-03-28T10:34:15.467Z,64.43
2019-03-28T10:36:42.335Z,64.69
2019-03-28T10:39:09.215Z,63.76
2019-03-28T10:41:38.286Z,63.73
2019-03-28T10:44:04.642Z,62.99
2019-03-28T10:46:31.449Z,63.31
2019-03-28T10:48:58.307Z,62.79
2019-03-28T10:51:25.048Z,62.34
2019-03-28T10:53:51.844Z,61.77
2019-03-28T10:56:23.363Z,61.38
2019-03-28T10:58:47.703Z,61.54
2019-03-28T11:01:16.644Z,61.58
2019-03-28T11:03:43.291Z,61.40
2019-03-28T11:06:10.225Z,61.81
2019-03-28T11:08:37.102Z,61.16
2019-03-28T11:11:03.943Z,61.44
2019-03-28T11:13:30.867Z,61.56
2019-03-28T11:15:57.753Z,60.74
2019-03-28T11:18:24.634Z,61.36
2019-03-28T11:20:53.354Z,61.20
2019-03-28T11:23:20.128Z,61.90
2019-03-28T11:25:46.931Z,61.42
2019-03-28T11:28:13.766Z,61.10
2019-03-28T11:30:40.501Z,61.34
2019-03-28T11:33:07.265Z,61.64
2019-03-28T11:35:34.007Z,61.71
2019-03-28T11:38:00.795Z,61.40
2019-03-28T11:40:27.657Z,60.97
2019-03-28T11:42:54.396Z,60.93
2019-03-28T11:45:21.251Z,61.23
2019-03-28T11:47:48.115Z,61.07
2019-03-28T11:50:17.168Z,61.32
2019-03-28T11:52:43.550Z,60.86
2019-03-28T11:55:10.770Z,60.13
2019-03-28T11:57:39.664Z,60.52
2019-03-28T12:00:11.718Z,59.44
2019-03-28T12:02:38.534Z,59.51
2019-03-28T12:05:05.784Z,59.66
2019-03-28T12:07:32.768Z,60.54
2019-03-28T12:09:59.553Z,60.57
2019-03-28T12:12:26.937Z,61.83
2019-03-28T12:14:53.710Z,62.09
2019-03-28T12:17:20.483Z,62.30
2019-03-28T12:19:47.402Z,62.42
2019-03-28T12:22:14.366Z,63.25
2019-03-28T12:24:41.110Z,63.89
2019-03-28T12:27:08.118Z,63.91
2019-03-28T12:29:35.892Z,64.50
2019-03-28T12:32:13.338Z,65.57
2019-03-28T12:34:31.934Z,67.89
2019-03-28T12:36:58.680Z,68.75
2019-03-28T12:39:25.694Z,69.61
2019-03-28T12:41:52.407Z,71.31
2019-03-28T12:44:19.237Z,73.11
2019-03-28T12:46:46.189Z,73.86
2019-03-28T12:49:12.994Z,74.68
2019-03-28T12:51:39.726Z,74.82
2019-03-28T12:54:06.506Z,74.31
2019-03-28T12:56:33.362Z,74.33
2019-03-28T12:59:00.184Z,74.07
2019-03-28T13:01:26.968Z,75.30
2019-03-28T13:03:53.683Z,75.90
2019-03-28T13:06:22.820Z,75.35
2019-03-28T13:08:53.362Z,74.27
2019-03-28T13:11:20.264Z,73.33
2019-03-28T13:13:47.205Z,72.71
2019-03-28T13:16:13.995Z,73.15
2019-03-28T13:18:45.326Z,71.92
2019-03-28T13:21:14.191Z,70.62
2019-03-28T13:23:41.224Z,70.82
2019-03-28T13:26:09.371Z,69.12
2019-03-28T13:28:36.243Z,67.85
2019-03-28T13:31:03.194Z,67.06
2019-03-28T13:33:30.687Z,67.00
2019-03-28T13:35:57.646Z,67.04
2019-03-28T13:38:24.474Z,66.42
2019-03-28T13:40:51.697Z,66.58
2019-03-28T13:43:20.975Z,67.42
2019-03-28T13:45:53.656Z,68.22
2019-03-28T13:48:20.892Z,68.35
2019-03-28T13:50:47.969Z,67.73
2019-03-28T13:53:14.809Z,68.61
2019-03-28T13:55:41.562Z,66.61
2019-03-28T13:58:08.316Z,66.64
2019-03-28T14:00:35.356Z,65.58
2019-03-28T14:03:02.152Z,64.33
2019-03-28T14:05:28.964Z,65.06
2019-03-28T14:07:55.888Z,65.21
2019-03-28T14:10:22.682Z,64.43
2019-03-28T14:12:49.388Z,63.86
2019-03-28T14:15:16.166Z,63.00
2019-03-28T14:17:43.068Z,63.30
2019-03-28T14:20:09.791Z,63.07
2019-03-28T14:22:36.706Z,62.56
2019-03-28T14:25:06.478Z,61.90
2019-03-28T14:27:33.211Z,61.75
2019-03-28T14:30:00.158Z,62.17
2019-03-28T14:32:28.078Z,61.61
2019-03-28T14:34:55.563Z,61.32
2019-03-28T14:37:22.453Z,62.22
2019-03-28T14:39:49.465Z,62.97
2019-03-28T14:42:19.502Z,63.55
2019-03-28T14:44:45.452Z,62.73
2019-03-28T14:47:12.205Z,62.43
2019-03-28T14:49:39.175Z,61.64
2019-03-28T14:52:05.950Z,61.32
2019-03-28T14:54:32.681Z,61.39
2019-03-28T14:56:59.594Z,61.08
2019-03-28T14:59:32.462Z,61.91
2019-03-28T15:01:55.150Z,62.86
2019-03-28T15:04:21.916Z,62.82
2019-03-28T15:06:48.658Z,62.74
2019-03-28T15:09:15.407Z,62.95
2019-03-28T15:11:42.192Z,62.98
2019-03-28T15:14:08.919Z,63.04
2019-03-28T15:16:35.654Z,62.94
2019-03-28T15:19:02.407Z,62.49
2019-03-28T15:21:29.129Z,61.55
2019-03-28T15:23:55.961Z,61.95
2019-03-28T15:26:22.758Z,61.99
2019-03-28T15:28:49.486Z,62.69
2019-03-28T15:31:16.312Z,63.12
2019-03-28T15:33:43.144Z,62.52
2019-03-28T15:36:09.974Z,62.24
2019-03-28T15:38:36.734Z,61.90
2019-03-28T15:41:03.510Z,62.10
2019-03-28T15:43:30.325Z,61.74
2019-03-28T15:45:57.076Z,61.58
2019-03-28T15:48:23.916Z,60.65
2019-03-28T15:50:50.752Z,60.50
2019-03-28T15:53:17.492Z,61.07
2019-03-28T15:55:44.272Z,60.70
2019-03-28T15:58:22.663Z,60.82
2019-03-28T16:00:39.767Z,60.69
2019-03-28T16:03:06.577Z,60.18
2019-03-28T16:05:33.457Z,60.30
2019-03-28T16:08:01.050Z,59.16
2019-03-28T16:10:28.093Z,59.86
2019-03-28T16:12:54.934Z,59.05
2019-03-28T16:15:22.432Z,58.87
2019-03-28T16:17:49.729Z,59.47
2019-03-28T16:20:16.480Z,59.45
2019-03-28T16:22:43.256Z,60.28
2019-03-28T16:25:10.162Z,60.58
2019-03-28T16:27:37.096Z,60.37
2019-03-28T16:30:07.071Z,61.19
2019-03-28T16:32:33.736Z,60.80
2019-03-28T16:35:00.607Z,60.09
2019-03-28T16:37:27.810Z,60.77
2019-03-28T16:39:54.756Z,60.71
2019-03-28T16:42:21.486Z,60.22
2019-03-28T16:44:49.278Z,60.74
2019-03-28T16:47:16.108Z,60.34
2019-03-28T16:49:42.997Z,60.64
2019-03-28T16:52:09.727Z,60.48
2019-03-28T16:54:36.475Z,61.14
2019-03-28T16:57:03.453Z,61.58
2019-03-28T16:59:30.359Z,61.93
2019-03-28T17:01:57.136Z,62.48
2019-03-28T17:04:23.946Z,62.67
2019-03-28T17:06:56.906Z,63.52
2019-03-28T17:10:40.907Z,64.01
2019-03-28T17:13:16.417Z,64.56
2019-03-28T17:15:43.309Z,65.03
2019-03-28T17:18:10.028Z,65.46
2019-03-28T17:20:36.884Z,65.68
2019-03-28T17:23:03.686Z,65.60
2019-03-28T17:25:32.701Z,66.25
2019-03-28T17:27:59.467Z,66.30
2019-03-28T17:30:26.983Z,66.74
2019-03-28T17:32:54.033Z,67.10
2019-03-28T17:35:20.993Z,67.16
2019-03-28T17:37:47.693Z,67.39
2019-03-28T17:40:14.429Z,66.97
2019-03-28T17:42:41.173Z,67.23
2019-03-28T17:45:08.083Z,67.39
2019-03-28T17:47:34.970Z,67.71
2019-03-28T17:50:01.837Z,67.83
2019-03-28T17:52:28.607Z,67.69
2019-03-28T17:54:55.465Z,67.69
2019-03-28T17:57:22.195Z,68.17
2019-03-28T17:59:49.038Z,68.77
2019-03-28T18:02:15.879Z,68.76
2019-03-28T18:04:48.229Z,69.29
2019-03-28T18:07:11.363Z,69.30
2019-03-28T18:09:38.285Z,69.36
2019-03-28T18:12:04.995Z,69.33
2019-03-28T18:14:31.871Z,69.10
2019-03-28T18:16:59.548Z,69.12
2019-03-28T18:19:26.387Z,69.36
2019-03-28T18:22:03.264Z,69.61
2019-03-28T18:24:21.920Z,69.81
2019-03-28T18:26:48.862Z,69.83
2019-03-28T18:29:19.005Z,69.81
2019-03-28T18:31:50.295Z,69.79
2019-03-28T18:34:13.046Z,69.85
2019-03-28T18:36:39.834Z,69.90
2019-03-28T18:39:06.636Z,70.10
2019-03-28T18:41:33.364Z,70.26
2019-03-28T18:44:00.123Z,70.21
2019-03-28T18:46:26.895Z,70.21
2019-03-28T18:48:53.632Z,70.25
2019-03-28T18:51:20.400Z,70.41
2019-03-28T18:53:47.146Z,70.39
2019-03-28T18:56:13.889Z,70.45
2019-03-28T18:58:40.677Z,70.21
2019-03-28T19:01:07.881Z,70.30
2019-03-28T19:03:35.719Z,70.60
2019-03-28T19:06:02.624Z,71.91
2019-03-28T19:08:29.350Z,72.71
2019-03-28T19:10:56.150Z,73.24
2019-03-28T19:13:23.026Z,73.02
2019-03-28T19:15:50.150Z,73.00
2019-03-28T19:18:16.966Z,73.12
2019-03-28T19:20:43.717Z,72.69
2019-03-28T19:23:10.440Z,72.98
2019-03-28T19:25:37.218Z,73.00
2019-03-28T19:28:07.265Z,73.43
2019-03-28T19:30:33.390Z,73.98
2019-03-28T19:33:00.373Z,73.67
2019-03-28T19:35:32.925Z,73.56
2019-03-28T19:37:56.000Z,73.97
2019-03-28T19:40:22.771Z,74.62
2019-03-28T19:42:49.752Z,75.04
2019-03-28T19:45:20.670Z,75.22
2019-03-28T19:47:47.438Z,75.36
2019-03-28T19:50:25.353Z,74.70
2019-03-28T19:52:52.193Z,74.91
2019-03-28T19:55:22.128Z,74.65
2019-03-28T19:57:48.882Z,74.65
2019-03-28T20:00:15.659Z,74.51
2019-03-28T20:02:42.534Z,74.85
2019-03-28T20:05:09.364Z,75.48
2019-03-28T20:07:36.040Z,75.24
2019-03-28T20:10:15.788Z,76.16
2019-03-28T20:12:32.549Z,76.52
2019-03-28T20:15:00.347Z,77.03
2019-03-28T20:17:27.441Z,76.84
2019-03-28T20:19:54.826Z,77.00
2019-03-28T20:22:21.845Z,76.92
2019-03-28T20:24:48.796Z,76.90
2019-03-28T20:27:15.579Z,77.25
2019-03-28T20:29:42.371Z,76.76
2019-03-28T20:32:09.197Z,76.98
2019-03-28T20:34:36.168Z,77.01
2019-03-28T20:37:03.115Z,76.62
2019-03-28T20:39:29.961Z,76.51
2019-03-28T20:41:56.728Z,74.87
2019-03-28T20:44:23.505Z,74.73
2019-03-28T20:46:50.273Z,74.85
2019-03-28T20:49:17.009Z,75.13
2019-03-28T20:51:43.798Z,75.24
2019-03-28T20:54:10.688Z,75.54
2019-03-28T20:56:37.522Z,75.82
2019-03-28T20:59:04.273Z,76.05
2019-03-28T21:01:31.173Z,76.23
2019-03-28T21:03:58.182Z,76.17
2019-03-28T21:06:24.949Z,77.61
2019-03-28T21:08:51.734Z,76.77
2019-03-28T21:11:18.501Z,76.06
2019-03-28T21:13:45.776Z,77.12
2019-03-28T21:16:12.600Z,76.25
2019-03-28T21:18:39.389Z,76.66
2019-03-28T21:21:06.165Z,78.03
2019-03-28T21:23:32.880Z,78.12
2019-03-28T21:25:59.671Z,78.88
2019-03-28T21:28:26.406Z,78.68
2019-03-28T21:30:53.178Z,77.90
2019-03-28T21:33:19.937Z,77.97
2019-03-28T21:35:47.189Z,77.87
2019-03-28T21:38:13.949Z,78.31
2019-03-28T21:40:40.799Z,78.48
2019-03-28T21:43:07.547Z,78.40
2019-03-28T21:45:34.401Z,77.92
2019-03-28T21:48:01.165Z,77.60
2019-03-28T21:50:27.883Z,77.56
2019-03-28T21:52:54.724Z,76.69
2019-03-28T21:55:21.477Z,76.44
2019-03-28T21:57:48.208Z,75.26
2019-03-28T22:00:15.510Z,74.30
2019-03-28T22:02:42.293Z,74.28
2019-03-28T22:05:09.051Z,74.72
2019-03-28T22:07:35.771Z,75.32
2019-03-28T22:10:08.345Z,75.76
2019-03-28T22:12:33.419Z,76.38
2019-03-28T22:15:00.356Z,77.81
2019-03-28T22:17:27.564Z,78.72
2019-03-28T22:19:54.277Z,79.20
2019-03-28T22:22:21.215Z,79.13
2019-03-28T22:24:47.948Z,79.15
2019-03-28T22:27:14.801Z,78.45
2019-03-28T22:29:41.676Z,78.45
2019-03-28T22:32:11.567Z,78.52
2019-03-28T22:34:37.199Z,78.56
2019-03-28T22:37:04.427Z,78.97
2019-03-28T22:39:31.161Z,78.75
2019-03-28T22:41:58.013Z,78.87
2019-03-28T22:44:25.034Z,81.04
2019-03-28T22:46:51.986Z,80.58
2019-03-28T22:49:18.751Z,80.03
2019-03-28T22:51:45.545Z,80.12
2019-03-28T22:54:12.303Z,80.93
2019-03-28T22:56:39.063Z,79.87
2019-03-28T22:59:05.816Z,80.61
2019-03-28T23:01:32.653Z,80.68
2019-03-28T23:03:59.505Z,80.47
2019-03-28T23:06:26.294Z,79.28
2019-03-28T23:08:53.002Z,78.53
2019-03-28T23:11:19.935Z,79.76
2019-03-28T23:13:46.696Z,80.16
2019-03-28T23:16:13.503Z,80.79
2019-03-28T23:18:40.217Z,80.76
2019-03-28T23:21:06.929Z,79.27
2019-03-28T23:23:33.740Z,80.44
2019-03-28T23:26:00.463Z,80.48
2019-03-28T23:28:27.214Z,79.56
2019-03-28T23:30:54.221Z,80.77
2019-03-28T23:33:21.674Z,79.05
2019-03-28T23:35:48.722Z,79.63
2019-03-28T23:38:15.545Z,78.85
2019-03-28T23:40:42.250Z,80.73
2019-03-28T23:43:09.293Z,80.76
2019-03-28T23:45:36.698Z,80.83
2019-03-28T23:48:03.457Z,80.77
2019-03-28T23:50:30.302Z,79.31
2019-03-28T23:52:57.182Z,77.68
2019-03-28T23:55:25.355Z,77.43
2019-03-28T23:57:52.142Z,76.97
